Terminal Aerodrome Forecast
Issued by NWS Wilmington, OH

Current Version | Previous Version | Graphics & Text | Print | Product List | Glossary On
Versions: 1 2 3 4 5 6 7 8 9 10 11 12 13 14 15 16 17 18 19 20 21
000
FTUS41 KILN 281700
TAFILN
TAF
KILN 281730Z 2818/2918 VRB03KT P6SM SCT040 SCT250
     FM290800 00000KT 3SM BR SCT050
     FM291300 33005KT P6SM SCT045=

USA.gov is the U.S. government's official web portal to all federal, state and local government web resources and services.